createdAt,value
2022-11-25T00:00:39.064Z,6.63
2022-11-25T00:03:30.201Z,5.82
2022-11-25T00:06:37.963Z,6.97
2022-11-25T00:09:28.589Z,6.43
2022-11-25T00:12:18.459Z,6.70
2022-11-25T00:15:09.827Z,6.30
2022-11-25T00:18:00.346Z,6.10
2022-11-25T00:20:50.756Z,6.05
2022-11-25T00:23:42.394Z,5.90
2022-11-25T00:26:35.737Z,6.05
2022-11-25T00:29:28.020Z,7.43
2022-11-25T00:32:18.696Z,6.85
2022-11-25T00:35:09.939Z,6.40
2022-11-25T00:38:00.242Z,6.88
2022-11-25T00:41:14.559Z,6.25
2022-11-25T00:44:23.077Z,5.78
2022-11-25T00:47:19.176Z,5.70
2022-11-25T00:50:10.587Z,6.55
2022-11-25T00:53:07.693Z,6.45
2022-11-25T00:56:17.299Z,5.82
2022-11-25T00:59:08.682Z,6.15
2022-11-25T01:01:59.609Z,6.57
2022-11-25T01:04:51.384Z,6.10
2022-11-25T01:07:41.669Z,5.95
2022-11-25T01:10:32.792Z,5.57
2022-11-25T01:13:22.856Z,5.97
2022-11-25T01:16:19.158Z,5.97
2022-11-25T01:19:11.215Z,6.50
2022-11-25T01:22:03.480Z,5.90
2022-11-25T01:24:53.636Z,6.75
2022-11-25T01:27:44.113Z,5.75
2022-11-25T01:30:39.748Z,5.90
2022-11-25T01:33:36.118Z,5.75
2022-11-25T01:36:27.284Z,6.45
2022-11-25T01:39:28.419Z,8.85
2022-11-25T01:42:23.579Z,6.75
2022-11-25T01:45:39.899Z,6.25
2022-11-25T01:48:54.636Z,5.82
2022-11-25T01:51:59.383Z,6.18
2022-11-25T01:55:02.889Z,5.68
2022-11-25T02:00:53.881Z,5.95
2022-11-25T02:03:47.958Z,6.40
2022-11-25T02:06:55.064Z,6.30
2022-11-25T02:09:48.498Z,6.30
2022-11-25T02:12:43.242Z,6.30
2022-11-25T02:15:38.661Z,7.18
2022-11-25T02:18:29.247Z,5.95
2022-11-25T02:21:23.484Z,6.25
2022-11-25T02:24:42.161Z,5.90
2022-11-25T02:27:32.996Z,6.93
2022-11-25T02:30:23.142Z,5.97
2022-11-25T02:33:15.239Z,5.90
2022-11-25T02:36:16.021Z,6.70
2022-11-25T02:39:06.753Z,6.35
2022-11-25T02:42:01.739Z,6.57
2022-11-25T02:44:52.826Z,6.35
2022-11-25T02:47:43.836Z,7.13
2022-11-25T02:50:34.077Z,7.80
2022-11-25T02:53:25.435Z,6.60
2022-11-25T02:56:16.928Z,6.60
2022-11-25T02:59:09.849Z,6.15
2022-11-25T03:02:01.309Z,6.07
2022-11-25T03:04:52.829Z,6.40
2022-11-25T03:07:43.507Z,8.13
2022-11-25T03:10:34.946Z,6.47
2022-11-25T03:13:25.789Z,6.35
2022-11-25T03:16:16.234Z,6.35
2022-11-25T03:19:07.463Z,7.88
2022-11-25T03:21:59.466Z,7.20
2022-11-25T03:24:50.573Z,8.90
2022-11-25T03:30:34.319Z,6.40
2022-11-25T03:33:26.100Z,6.70
2022-11-25T03:36:16.374Z,6.13
2022-11-25T03:39:06.622Z,6.40
2022-11-25T03:41:59.237Z,8.38
2022-11-25T03:44:50.744Z,6.65
2022-11-25T03:47:42.437Z,7.10
2022-11-25T03:50:33.015Z,7.10
2022-11-25T03:53:24.285Z,9.13
2022-11-25T03:56:17.564Z,7.35
2022-11-25T03:59:09.375Z,6.88
2022-11-25T04:02:03.039Z,7.88
2022-11-25T04:04:56.279Z,6.35
2022-11-25T04:07:46.617Z,7.32
2022-11-25T04:10:39.237Z,7.47
2022-11-25T04:13:30.779Z,8.32
2022-11-25T04:16:27.605Z,7.72
2022-11-25T04:19:18.130Z,8.32
2022-11-25T04:22:08.747Z,7.78
2022-11-25T04:25:02.380Z,7.80
2022-11-25T04:27:53.268Z,9.43
2022-11-25T04:30:48.987Z,7.95
2022-11-25T04:33:40.258Z,10.02
2022-11-25T04:36:32.027Z,9.88
2022-11-25T04:39:22.466Z,8.82
2022-11-25T04:42:33.331Z,9.93
2022-11-25T04:45:40.695Z,9.80
2022-11-25T04:48:41.051Z,7.88
2022-11-25T04:51:33.728Z,9.88
2022-11-25T04:54:27.330Z,10.85
2022-11-25T04:57:22.901Z,8.32
2022-11-25T05:00:14.234Z,10.70
2022-11-25T05:03:05.781Z,8.93
2022-11-25T05:05:58.865Z,11.07
2022-11-25T05:08:53.505Z,11.48
2022-11-25T05:11:46.128Z,12.05
2022-11-25T05:14:37.052Z,9.82
2022-11-25T05:17:30.501Z,11.75
2022-11-25T05:20:22.085Z,11.63
2022-11-25T05:23:13.231Z,11.27
2022-11-25T05:26:06.473Z,12.35
2022-11-25T05:29:03.900Z,11.30
2022-11-25T05:31:56.770Z,11.30
2022-11-25T05:34:48.351Z,10.07
2022-11-25T05:37:42.430Z,11.57
2022-11-25T05:40:35.571Z,10.10
2022-11-25T05:43:31.552Z,10.10
2022-11-25T05:46:26.371Z,10.30
2022-11-25T05:49:20.347Z,12.63
2022-11-25T05:52:12.996Z,10.55
2022-11-25T05:55:14.696Z,11.05
2022-11-25T05:58:08.497Z,12.35
2022-11-25T06:00:59.981Z,12.70
2022-11-25T06:03:52.584Z,10.57
2022-11-25T06:06:42.931Z,11.35
2022-11-25T06:09:33.727Z,10.95
2022-11-25T06:12:24.957Z,10.98
2022-11-25T06:15:16.984Z,11.60
2022-11-25T06:18:07.233Z,11.20
2022-11-25T06:21:00.496Z,10.13
2022-11-25T06:23:52.351Z,10.32
2022-11-25T06:26:43.810Z,10.73
2022-11-25T06:29:34.597Z,10.10
2022-11-25T06:32:25.792Z,10.45
2022-11-25T06:35:22.362Z,12.80
2022-11-25T06:38:17.973Z,12.18
2022-11-25T06:41:08.699Z,10.73
2022-11-25T06:43:59.449Z,10.48
2022-11-25T06:46:49.542Z,11.70
2022-11-25T06:49:39.752Z,12.32
2022-11-25T06:52:34.105Z,10.88
2022-11-25T06:55:24.658Z,10.38
2022-11-25T06:58:34.757Z,11.65
2022-11-25T07:01:30.483Z,12.60
2022-11-25T07:04:22.382Z,11.23
2022-11-25T07:07:13.516Z,12.60
2022-11-25T07:10:04.862Z,11.60
2022-11-25T07:12:55.272Z,13.00
2022-11-25T07:15:46.224Z,14.02
2022-11-25T07:18:38.758Z,13.13
2022-11-25T07:21:29.626Z,10.27
2022-11-25T07:24:20.489Z,11.75
2022-11-25T07:27:11.751Z,12.70
2022-11-25T07:33:12.567Z,13.02
2022-11-25T07:36:08.533Z,12.68
2022-11-25T07:39:00.733Z,13.27
2022-11-25T07:41:57.623Z,11.95
2022-11-25T07:44:48.187Z,12.38
2022-11-25T07:48:05.097Z,12.93
2022-11-25T07:50:56.976Z,13.30
2022-11-25T07:53:48.019Z,11.82
2022-11-25T07:56:42.775Z,11.88
2022-11-25T07:59:34.564Z,12.45
2022-11-25T08:02:25.738Z,13.02
2022-11-25T08:05:16.289Z,12.93
2022-11-25T08:08:07.431Z,11.82
2022-11-25T08:10:57.592Z,13.00
2022-11-25T08:13:49.465Z,13.48
2022-11-25T08:16:39.993Z,11.65
2022-11-25T08:19:31.576Z,10.10
2022-11-25T08:22:21.958Z,10.95
2022-11-25T08:25:12.983Z,13.00
2022-11-25T08:28:03.469Z,11.85
2022-11-25T08:30:53.847Z,13.57
2022-11-25T08:33:45.725Z,13.35
2022-11-25T08:36:37.440Z,12.88
2022-11-25T08:42:39.080Z,13.48
2022-11-25T08:45:30.326Z,13.23
2022-11-25T08:48:24.059Z,11.02
2022-11-25T08:51:44.061Z,11.45
2022-11-25T08:54:34.854Z,12.60
2022-11-25T08:57:25.941Z,10.85
2022-11-25T09:00:17.885Z,12.30
2022-11-25T09:03:08.797Z,12.75
2022-11-25T09:05:59.107Z,12.23
2022-11-25T09:08:50.557Z,12.75
2022-11-25T09:11:40.426Z,10.45
2022-11-25T09:14:31.331Z,11.32
2022-11-25T09:17:22.271Z,9.93
2022-11-25T09:20:13.347Z,11.13
2022-11-25T09:23:04.110Z,11.80
2022-11-25T09:26:01.031Z,10.25
2022-11-25T09:28:51.925Z,11.45
2022-11-25T09:31:42.854Z,9.88
2022-11-25T09:34:33.585Z,10.68
2022-11-25T09:37:24.685Z,9.65
2022-11-25T09:41:03.008Z,9.88
2022-11-25T09:44:30.447Z,12.57
2022-11-25T09:47:33.947Z,9.60
2022-11-25T09:50:56.942Z,12.50
2022-11-25T09:53:54.246Z,11.70
2022-11-25T09:57:03.718Z,11.25
2022-11-25T10:00:16.683Z,10.98
2022-11-25T10:03:25.147Z,9.13
2022-11-25T10:06:18.651Z,9.90
2022-11-25T10:09:19.850Z,12.27
2022-11-25T10:12:42.905Z,11.50
2022-11-25T10:15:45.831Z,10.83
2022-11-25T10:18:47.725Z,10.87
2022-11-25T10:21:38.106Z,10.88
2022-11-25T10:24:28.534Z,14.23
2022-11-25T10:27:31.090Z,11.43
2022-11-25T10:30:27.847Z,10.67
2022-11-25T10:33:34.713Z,9.98
2022-11-25T10:36:41.300Z,10.82
2022-11-25T10:39:35.900Z,11.10
2022-11-25T10:42:29.890Z,8.68
2022-11-25T10:45:27.382Z,11.30
2022-11-25T10:48:41.377Z,10.77
2022-11-25T10:51:45.770Z,9.05
2022-11-25T10:54:36.767Z,10.93
2022-11-25T10:57:30.863Z,10.38
2022-11-25T11:00:33.500Z,10.18
2022-11-25T11:03:28.647Z,9.38
2022-11-25T11:06:51.880Z,9.70
2022-11-25T11:09:43.329Z,10.25
2022-11-25T11:12:34.292Z,9.55
2022-11-25T11:15:29.247Z,9.57
2022-11-25T11:18:29.643Z,9.70
2022-11-25T11:21:42.820Z,10.38
2022-11-25T11:24:44.060Z,9.13
2022-11-25T11:27:39.545Z,8.18
2022-11-25T11:30:35.903Z,9.57
2022-11-25T11:33:44.330Z,9.15
2022-11-25T11:37:02.425Z,9.18
2022-11-25T11:40:06.468Z,10.40
2022-11-25T11:43:24.493Z,9.93
2022-11-25T11:46:44.348Z,8.38
2022-11-25T11:49:44.425Z,8.25
2022-11-25T11:53:07.314Z,11.63
2022-11-25T11:56:34.826Z,8.68
2022-11-25T11:59:34.515Z,9.93
2022-11-25T12:02:29.703Z,9.40
2022-11-25T12:05:28.290Z,8.98
2022-11-25T12:08:23.224Z,10.15
2022-11-25T12:11:20.986Z,9.38
2022-11-25T12:14:42.446Z,10.63
2022-11-25T12:18:04.700Z,8.90
2022-11-25T12:21:03.226Z,9.40
2022-11-25T12:24:06.260Z,11.13
2022-11-25T12:27:09.626Z,11.68
2022-11-25T12:33:43.707Z,8.13
2022-11-25T12:36:41.361Z,9.48
2022-11-25T12:39:40.186Z,8.07
2022-11-25T12:42:35.547Z,8.50
2022-11-25T12:45:28.376Z,7.85
2022-11-25T12:48:21.424Z,9.32
2022-11-25T12:51:30.662Z,9.88
2022-11-25T12:54:29.625Z,8.77
2022-11-25T12:57:29.326Z,7.97
2022-11-25T13:00:43.223Z,9.15
2022-11-25T13:04:14.977Z,9.75
2022-11-25T13:07:14.896Z,7.80
2022-11-25T13:10:48.015Z,9.13
2022-11-25T13:13:52.150Z,8.48
2022-11-25T13:16:44.427Z,9.70
2022-11-25T13:19:38.931Z,9.70
2022-11-25T13:22:31.710Z,8.75
2022-11-25T13:25:30.465Z,9.05
2022-11-25T13:28:34.210Z,9.45
2022-11-25T13:34:23.245Z,7.40
2022-11-25T13:37:43.561Z,9.07
2022-11-25T13:40:40.091Z,7.90
2022-11-25T13:43:30.841Z,9.43
2022-11-25T13:46:53.709Z,8.63
2022-11-25T13:49:54.726Z,8.65
2022-11-25T13:52:51.390Z,8.27
2022-11-25T13:55:43.371Z,9.32
2022-11-25T13:58:37.246Z,8.40
2022-11-25T14:01:30.442Z,8.63
2022-11-25T14:04:43.438Z,7.85
2022-11-25T14:08:09.355Z,8.52
2022-11-25T14:11:04.207Z,8.73
2022-11-25T14:14:19.189Z,9.68
2022-11-25T14:17:25.177Z,9.88
2022-11-25T14:20:42.077Z,7.82
2022-11-25T14:24:07.382Z,9.50
2022-11-25T14:26:58.881Z,9.82
2022-11-25T14:29:53.310Z,7.45
2022-11-25T14:33:01.045Z,8.30
2022-11-25T14:36:00.684Z,9.90
2022-11-25T14:39:05.994Z,9.93
2022-11-25T14:42:14.961Z,11.20
2022-11-25T14:45:05.728Z,8.20
2022-11-25T14:47:55.986Z,9.60
2022-11-25T14:51:02.799Z,9.07
2022-11-25T14:53:54.520Z,9.63
2022-11-25T14:56:45.001Z,9.88
2022-11-25T14:59:38.730Z,9.35
2022-11-25T15:02:35.223Z,10.38
2022-11-25T15:05:36.231Z,11.52
2022-11-25T15:08:28.404Z,10.07
2022-11-25T15:11:25.822Z,12.50
2022-11-25T15:14:30.345Z,8.07
2022-11-25T15:17:38.764Z,8.13
2022-11-25T15:20:29.207Z,9.82
2022-11-25T15:23:26.577Z,10.65
2022-11-25T15:26:30.174Z,11.30
2022-11-25T15:29:20.630Z,10.18
2022-11-25T15:32:34.824Z,11.70
2022-11-25T15:35:27.511Z,8.38
2022-11-25T15:38:48.378Z,9.33
2022-11-25T15:41:38.920Z,13.40
2022-11-25T15:44:33.297Z,13.85
2022-11-25T15:47:31.741Z,9.18
2022-11-25T15:50:28.595Z,9.35
2022-11-25T15:53:33.207Z,10.80
2022-11-25T15:56:27.083Z,10.65
2022-11-25T16:00:06.310Z,10.63
2022-11-25T16:03:03.890Z,9.98
2022-11-25T16:05:59.115Z,11.98
2022-11-25T16:09:02.103Z,9.65
2022-11-25T16:11:53.026Z,8.55
2022-11-25T16:14:43.895Z,9.55
2022-11-25T16:17:37.963Z,9.43
2022-11-25T16:20:28.205Z,11.63
2022-11-25T16:23:19.276Z,10.75
2022-11-25T16:26:19.017Z,11.05
2022-11-25T16:29:33.140Z,10.07
2022-11-25T16:32:32.363Z,12.27
2022-11-25T16:35:23.533Z,9.55
2022-11-25T16:38:16.275Z,7.78
2022-11-25T16:41:38.532Z,8.85
2022-11-25T16:44:30.118Z,9.65
2022-11-25T16:47:23.022Z,10.27
2022-11-25T16:53:09.285Z,12.80
2022-11-25T16:55:59.574Z,13.48
2022-11-25T16:58:49.439Z,12.35
2022-11-25T17:01:39.264Z,9.88
2022-11-25T17:04:29.455Z,10.55
2022-11-25T17:07:36.953Z,11.38
2022-11-25T17:10:29.725Z,10.57
2022-11-25T17:13:23.241Z,10.98
2022-11-25T17:16:20.078Z,9.95
2022-11-25T17:19:17.149Z,9.63
2022-11-25T17:22:19.767Z,8.40
2022-11-25T17:25:11.476Z,8.00
2022-11-25T17:28:02.277Z,8.52
2022-11-25T17:30:52.506Z,11.93
2022-11-25T17:33:47.607Z,17.27
2022-11-25T17:36:37.218Z,12.10
2022-11-25T17:39:27.515Z,10.30
2022-11-25T17:42:20.392Z,12.85
2022-11-25T17:45:16.283Z,13.75
2022-11-25T17:48:12.471Z,10.48
2022-11-25T17:51:07.260Z,12.20
2022-11-25T17:53:58.790Z,13.43
2022-11-25T17:56:52.530Z,9.52
2022-11-25T17:59:43.768Z,8.38
2022-11-25T18:02:33.861Z,10.68
2022-11-25T18:05:26.641Z,11.82
2022-11-25T18:08:16.935Z,11.82
2022-11-25T18:11:08.350Z,9.35
2022-11-25T18:13:58.581Z,10.07
2022-11-25T18:16:49.063Z,10.68
2022-11-25T18:19:39.515Z,14.32
2022-11-25T18:22:29.557Z,9.82
2022-11-25T18:25:26.343Z,12.68
2022-11-25T18:28:22.185Z,10.32
2022-11-25T18:31:14.286Z,7.45
2022-11-25T18:34:04.913Z,11.13
2022-11-25T18:36:56.198Z,8.80
2022-11-25T18:39:45.734Z,9.27
2022-11-25T18:42:36.275Z,8.63
2022-11-25T18:45:38.560Z,11.45
2022-11-25T18:48:29.462Z,10.50
2022-11-25T18:51:19.495Z,10.15
2022-11-25T18:54:10.207Z,13.25
2022-11-25T18:57:00.576Z,9.27
2022-11-25T19:00:17.330Z,10.95
2022-11-25T19:03:02.242Z,10.88
2022-11-25T19:05:55.451Z,9.95
2022-11-25T19:08:46.164Z,13.30
2022-11-25T19:11:41.037Z,11.05
2022-11-25T19:14:35.557Z,9.23
2022-11-25T19:17:27.089Z,7.93
2022-11-25T19:20:22.743Z,8.77
2022-11-25T19:23:29.485Z,7.50
2022-11-25T19:26:26.313Z,9.85
2022-11-25T19:29:25.051Z,11.07
2022-11-25T19:32:35.841Z,9.68
2022-11-25T19:35:46.039Z,11.10
2022-11-25T19:38:36.582Z,7.53
2022-11-25T19:41:26.677Z,10.43
2022-11-25T19:44:17.194Z,8.63
2022-11-25T19:47:15.082Z,8.88
2022-11-25T19:50:07.716Z,10.50
2022-11-25T19:52:57.671Z,10.93
2022-11-25T19:55:49.339Z,9.63
2022-11-25T19:58:40.272Z,15.65
2022-11-25T20:01:35.347Z,348.05
2022-11-25T20:04:25.774Z,82.18
2022-11-25T20:07:18.784Z,253.48
2022-11-25T20:10:26.965Z,301.67
2022-11-25T20:13:16.742Z,345.23
2022-11-25T20:16:13.099Z,284.60
2022-11-25T20:19:03.676Z,321.98
2022-11-25T20:21:53.266Z,323.35
2022-11-25T20:24:43.492Z,326.90
2022-11-25T20:27:35.720Z,286.10
2022-11-25T20:30:30.769Z,287.40
2022-11-25T20:33:24.565Z,242.73
2022-11-25T20:36:18.309Z,265.67
2022-11-25T20:39:08.506Z,218.93
2022-11-25T20:41:59.644Z,220.40
2022-11-25T20:44:55.929Z,216.43
2022-11-25T20:47:50.928Z,211.77
2022-11-25T20:50:41.381Z,208.10
2022-11-25T20:53:33.366Z,207.38
2022-11-25T20:56:27.133Z,190.93
2022-11-25T20:59:25.608Z,203.68
2022-11-25T21:02:20.784Z,192.32
2022-11-25T21:05:11.448Z,170.07
2022-11-25T21:08:03.499Z,176.23
2022-11-25T21:10:56.918Z,176.88
2022-11-25T21:13:48.168Z,166.82
2022-11-25T21:16:38.503Z,148.45
2022-11-25T21:19:28.094Z,162.38
2022-11-25T21:22:18.700Z,157.52
2022-11-25T21:25:13.007Z,154.98
2022-11-25T21:28:05.127Z,126.93
2022-11-25T21:30:56.284Z,131.30
2022-11-25T21:33:48.083Z,138.30
2022-11-25T21:36:39.049Z,134.48
2022-11-25T21:39:35.859Z,127.88
2022-11-25T21:42:27.686Z,130.32
2022-11-25T21:45:19.351Z,124.00
2022-11-25T21:48:23.354Z,120.15
2022-11-25T21:51:16.471Z,123.70
2022-11-25T21:54:07.147Z,114.28
2022-11-25T21:57:00.080Z,110.57
2022-11-25T21:59:51.163Z,105.18
2022-11-25T22:02:42.099Z,112.32
2022-11-25T22:05:32.699Z,106.47
2022-11-25T22:08:25.604Z,101.50
2022-11-25T22:11:19.059Z,101.03
2022-11-25T22:14:28.541Z,94.70
2022-11-25T22:17:20.854Z,98.65
2022-11-25T22:20:41.690Z,86.03
2022-11-25T22:23:31.965Z,95.43
2022-11-25T22:26:33.252Z,85.15
2022-11-25T22:29:27.967Z,98.65
2022-11-25T22:32:20.539Z,88.30
2022-11-25T22:35:21.923Z,82.32
2022-11-25T22:38:21.402Z,87.60
2022-11-25T22:41:13.006Z,87.63
2022-11-25T22:44:03.787Z,82.75
2022-11-25T22:46:54.080Z,75.13
2022-11-25T22:49:48.687Z,75.68
2022-11-25T22:52:39.941Z,78.80
2022-11-25T22:55:35.555Z,82.97
2022-11-25T22:58:28.868Z,67.97
2022-11-25T23:04:18.506Z,70.03
2022-11-25T23:07:14.936Z,66.35
2022-11-25T23:10:15.324Z,69.57
2022-11-25T23:13:06.240Z,70.00
2022-11-25T23:16:02.609Z,64.95
2022-11-25T23:18:52.869Z,63.40
2022-11-25T23:21:43.664Z,66.15
2022-11-25T23:24:33.667Z,67.80
2022-11-25T23:27:24.266Z,65.28
2022-11-25T23:30:23.263Z,59.95
2022-11-25T23:33:21.661Z,63.00
2022-11-25T23:36:15.883Z,63.92
2022-11-25T23:39:06.128Z,63.58
2022-11-25T23:41:56.769Z,60.28
2022-11-25T23:44:47.378Z,174.15
2022-11-25T23:47:38.000Z,92.10
2022-11-25T23:50:35.291Z,163.30
2022-11-25T23:53:37.026Z,235.75
2022-11-25T23:56:29.577Z,452.98
2022-11-25T23:59:20.663Z,467.50
